createdAt,value
2018-03-22T00:00:59.905Z,73.41
2018-03-22T00:01:59.890Z,74.26
2018-03-22T00:02:59.876Z,73.50
2018-03-22T00:03:59.868Z,73.88
2018-03-22T00:04:59.857Z,73.88
2018-03-22T00:05:59.845Z,73.69
2018-03-22T00:06:59.838Z,73.88
2018-03-22T00:07:59.830Z,73.69
2018-03-22T00:08:59.815Z,73.60
2018-03-22T00:09:59.805Z,73.60
2018-03-22T00:10:59.796Z,74.55
2018-03-22T00:11:59.789Z,74.17
2018-03-22T00:12:59.776Z,72.94
2018-03-22T00:13:59.769Z,73.50
2018-03-22T00:14:59.768Z,74.07
2018-03-22T00:15:59.771Z,74.17
2018-03-22T00:16:59.739Z,74.36
2018-03-22T00:17:59.733Z,73.88
2018-03-22T00:18:59.718Z,73.98
2018-03-22T00:19:59.707Z,73.98
2018-03-22T00:20:59.698Z,73.69
2018-03-22T00:21:59.710Z,74.26
2018-03-22T00:22:59.683Z,73.79
2018-03-22T00:23:59.668Z,73.88
2018-03-22T00:24:59.663Z,74.45
2018-03-22T00:25:59.649Z,74.07
2018-03-22T00:26:59.648Z,74.04
2018-03-22T00:27:59.627Z,74.51
2018-03-22T00:28:59.634Z,74.51
2018-03-22T00:29:59.609Z,74.98
2018-03-22T00:30:59.596Z,74.79
2018-03-22T00:31:59.588Z,74.51
2018-03-22T00:32:59.614Z,74.51
2018-03-22T00:33:59.567Z,75.07
2018-03-22T00:34:59.561Z,74.69
2018-03-22T00:36:00.765Z,74.88
2018-03-22T00:36:59.537Z,74.88
2018-03-22T00:37:59.533Z,74.36
2018-03-22T00:38:59.518Z,74.13
2018-03-22T00:39:59.511Z,74.41
2018-03-22T00:40:59.987Z,73.75
2018-03-22T00:41:59.505Z,74.51
2018-03-22T00:42:59.476Z,74.32
2018-03-22T00:43:59.466Z,74.88
2018-03-22T00:44:59.456Z,74.69
2018-03-22T00:45:59.444Z,74.69
2018-03-22T00:46:59.441Z,74.69
2018-03-22T00:47:59.425Z,74.79
2018-03-22T00:48:59.416Z,74.60
2018-03-22T00:49:59.404Z,75.07
2018-03-22T00:50:59.397Z,74.51
2018-03-22T00:51:59.383Z,74.69
2018-03-22T00:52:59.375Z,74.60
2018-03-22T00:53:59.368Z,74.79
2018-03-22T00:54:59.352Z,74.79
2018-03-22T00:55:59.348Z,74.51
2018-03-22T00:56:59.337Z,74.79
2018-03-22T00:57:59.324Z,74.41
2018-03-22T00:58:59.314Z,74.32
2018-03-22T00:59:59.326Z,73.94
2018-03-22T01:00:59.995Z,73.85
2018-03-22T01:01:59.283Z,73.88
2018-03-22T01:02:59.278Z,74.07
2018-03-22T01:03:59.262Z,73.88
2018-03-22T01:04:59.260Z,73.88
2018-03-22T01:05:59.244Z,73.50
2018-03-22T01:06:59.231Z,73.50
2018-03-22T01:07:59.224Z,73.60
2018-03-22T01:08:59.221Z,73.79
2018-03-22T01:09:59.200Z,73.88
2018-03-22T01:10:59.195Z,73.41
2018-03-22T01:11:59.180Z,73.88
2018-03-22T01:12:59.171Z,73.22
2018-03-22T01:13:59.168Z,73.88
2018-03-22T01:14:59.156Z,73.69
2018-03-22T01:15:59.140Z,73.50
2018-03-22T01:16:59.131Z,73.69
2018-03-22T01:17:59.120Z,73.98
2018-03-22T01:18:59.118Z,73.79
2018-03-22T01:19:59.101Z,73.69
2018-03-22T01:20:59.091Z,73.79
2018-03-22T01:21:59.082Z,73.41
2018-03-22T01:22:59.070Z,73.60
2018-03-22T01:23:59.061Z,73.60
2018-03-22T01:24:59.055Z,74.07
2018-03-22T01:25:59.042Z,73.88
2018-03-22T01:26:59.032Z,73.88
2018-03-22T01:27:59.021Z,74.26
2018-03-22T01:28:59.026Z,73.88
2018-03-22T01:29:59.008Z,73.98
2018-03-22T01:30:58.989Z,74.55
2018-03-22T01:31:58.988Z,73.60
2018-03-22T01:32:58.971Z,73.32
2018-03-22T01:33:58.963Z,74.55
2018-03-22T01:34:58.951Z,74.07
2018-03-22T01:35:58.942Z,73.60
2018-03-22T01:36:58.931Z,74.07
2018-03-22T01:37:58.924Z,73.50
2018-03-22T01:38:58.913Z,73.79
2018-03-22T01:39:58.902Z,73.50
2018-03-22T01:40:58.892Z,74.36
2018-03-22T01:41:58.881Z,74.17
2018-03-22T01:42:58.882Z,73.98
2018-03-22T01:43:58.863Z,73.69
2018-03-22T01:44:58.852Z,73.88
2018-03-22T01:45:58.842Z,73.88
2018-03-22T01:46:58.831Z,73.41
2018-03-22T01:47:58.821Z,73.32
2018-03-22T01:48:58.810Z,73.50
2018-03-22T01:49:58.803Z,73.32
2018-03-22T01:50:58.791Z,73.41
2018-03-22T01:51:58.786Z,73.13
2018-03-22T01:52:58.770Z,73.41
2018-03-22T01:53:58.760Z,73.50
2018-03-22T01:54:58.752Z,73.32
2018-03-22T01:55:58.743Z,73.41
2018-03-22T01:56:58.731Z,73.41
2018-03-22T01:57:58.723Z,73.32
2018-03-22T01:58:58.713Z,72.56
2018-03-22T01:59:58.705Z,72.37
2018-03-22T02:00:58.692Z,72.75
2018-03-22T02:01:58.684Z,72.18
2018-03-22T02:02:58.673Z,71.90
2018-03-22T02:03:58.666Z,71.80
2018-03-22T02:04:58.653Z,71.90
2018-03-22T02:05:58.692Z,72.09
2018-03-22T02:06:58.636Z,71.99
2018-03-22T02:07:58.630Z,71.71
2018-03-22T02:08:58.619Z,70.95
2018-03-22T02:09:58.602Z,71.61
2018-03-22T02:10:58.603Z,71.61
2018-03-22T02:11:58.593Z,71.80
2018-03-22T02:12:58.574Z,71.71
2018-03-22T02:13:58.564Z,71.14
2018-03-22T02:14:58.552Z,70.48
2018-03-22T02:15:58.543Z,70.39
2018-03-22T02:16:58.531Z,70.95
2018-03-22T02:17:58.526Z,70.48
2018-03-22T02:18:58.516Z,70.95
2018-03-22T02:19:58.503Z,70.57
2018-03-22T02:20:58.492Z,70.67
2018-03-22T02:21:58.482Z,70.48
2018-03-22T02:22:58.484Z,70.57
2018-03-22T02:23:58.462Z,70.29
2018-03-22T02:24:58.452Z,70.86
2018-03-22T02:25:58.453Z,70.57
2018-03-22T02:26:58.433Z,70.39
2018-03-22T02:27:58.423Z,70.95
2018-03-22T02:28:58.413Z,70.48
2018-03-22T02:29:58.403Z,70.95
2018-03-22T02:30:58.394Z,70.76
2018-03-22T02:31:58.388Z,70.86
2018-03-22T02:32:58.378Z,70.76
2018-03-22T02:33:58.363Z,70.76
2018-03-22T02:34:58.360Z,70.76
2018-03-22T02:35:58.346Z,70.48
2018-03-22T02:36:58.345Z,70.39
2018-03-22T02:37:58.330Z,70.57
2018-03-22T02:38:58.320Z,70.86
2018-03-22T02:39:58.336Z,70.29
2018-03-22T02:40:58.296Z,70.48
2018-03-22T02:41:58.303Z,70.10
2018-03-22T02:42:58.277Z,70.20
2018-03-22T02:43:58.267Z,70.29
2018-03-22T02:44:58.260Z,70.20
2018-03-22T02:45:58.247Z,70.10
2018-03-22T02:46:58.246Z,70.10
2018-03-22T02:47:58.235Z,70.10
2018-03-22T02:48:58.223Z,70.20
2018-03-22T02:49:58.210Z,70.29
2018-03-22T02:50:58.199Z,70.01
2018-03-22T02:51:58.195Z,70.20
2018-03-22T02:52:58.193Z,70.48
2018-03-22T02:53:58.171Z,70.48
2018-03-22T02:54:58.161Z,70.86
2018-03-22T02:55:58.153Z,70.67
2018-03-22T02:56:58.143Z,70.76
2018-03-22T02:57:58.130Z,70.48
2018-03-22T02:58:58.129Z,70.48
2018-03-22T02:59:58.109Z,70.48
2018-03-22T03:00:58.100Z,70.48
2018-03-22T03:01:58.135Z,70.48
2018-03-22T03:02:58.090Z,70.67
2018-03-22T03:03:58.071Z,70.76
2018-03-22T03:04:58.064Z,70.67
2018-03-22T03:05:58.050Z,70.86
2018-03-22T03:06:58.055Z,70.48
2018-03-22T03:07:58.033Z,71.14
2018-03-22T03:08:58.019Z,71.04
2018-03-22T03:09:58.011Z,71.61
2018-03-22T03:10:58.003Z,71.61
2018-03-22T03:11:57.990Z,71.14
2018-03-22T03:12:57.979Z,71.14
2018-03-22T03:13:57.969Z,70.86
2018-03-22T03:14:57.959Z,71.14
2018-03-22T03:15:57.952Z,71.80
2018-03-22T03:16:57.957Z,71.61
2018-03-22T03:17:57.931Z,71.23
2018-03-22T03:18:57.971Z,71.71
2018-03-22T03:19:57.910Z,71.61
2018-03-22T03:20:57.899Z,71.33
2018-03-22T03:21:57.891Z,71.61
2018-03-22T03:22:57.880Z,71.90
2018-03-22T03:23:57.871Z,71.61
2018-03-22T03:24:57.859Z,71.80
2018-03-22T03:25:57.850Z,71.90
2018-03-22T03:26:57.947Z,72.18
2018-03-22T03:27:57.833Z,71.80
2018-03-22T03:28:57.820Z,71.71
2018-03-22T03:29:57.810Z,71.52
2018-03-22T03:30:57.803Z,71.61
2018-03-22T03:31:57.794Z,71.42
2018-03-22T03:32:57.788Z,71.33
2018-03-22T03:33:57.776Z,71.42
2018-03-22T03:34:57.766Z,71.14
2018-03-22T03:35:57.750Z,71.42
2018-03-22T03:36:57.782Z,71.33
2018-03-22T03:37:57.730Z,71.42
2018-03-22T03:38:57.719Z,71.23
2018-03-22T03:39:57.717Z,71.99
2018-03-22T03:40:57.719Z,72.09
2018-03-22T03:41:57.689Z,71.99
2018-03-22T03:42:57.681Z,71.90
2018-03-22T03:43:57.670Z,71.90
2018-03-22T03:44:57.659Z,71.80
2018-03-22T03:45:57.652Z,72.09
2018-03-22T03:46:57.641Z,71.71
2018-03-22T03:47:57.631Z,71.80
2018-03-22T03:48:57.621Z,71.99
2018-03-22T03:49:57.612Z,72.09
2018-03-22T03:50:57.601Z,72.09
2018-03-22T03:51:57.595Z,71.99
2018-03-22T03:52:57.581Z,71.90
2018-03-22T03:53:57.573Z,71.80
2018-03-22T03:54:57.569Z,71.90
2018-03-22T03:55:57.550Z,72.09
2018-03-22T03:56:57.541Z,72.28
2018-03-22T03:57:57.540Z,72.56
2018-03-22T03:58:57.561Z,72.09
2018-03-22T03:59:57.511Z,72.75
2018-03-22T04:00:57.499Z,72.75
2018-03-22T04:01:57.489Z,72.56
2018-03-22T04:02:57.480Z,72.47
2018-03-22T04:03:57.471Z,73.03
2018-03-22T04:04:57.474Z,72.85
2018-03-22T04:05:57.450Z,73.32
2018-03-22T04:06:57.440Z,73.69
2018-03-22T04:07:57.433Z,73.32
2018-03-22T04:08:57.420Z,73.60
2018-03-22T04:09:57.415Z,73.22
2018-03-22T04:10:57.403Z,73.32
2018-03-22T04:11:57.390Z,73.60
2018-03-22T04:12:57.382Z,73.79
2018-03-22T04:13:57.371Z,73.69
2018-03-22T04:14:57.372Z,73.50
2018-03-22T04:15:57.350Z,72.85
2018-03-22T04:16:57.340Z,72.56
2018-03-22T04:17:57.333Z,72.94
2018-03-22T04:18:57.321Z,72.37
2018-03-22T04:19:57.311Z,71.71
2018-03-22T04:20:57.304Z,71.52
2018-03-22T04:21:57.292Z,71.61
2018-03-22T04:22:57.283Z,71.71
2018-03-22T04:23:57.280Z,70.95
2018-03-22T04:24:57.261Z,70.86
2018-03-22T04:25:57.253Z,70.86
2018-03-22T04:26:57.242Z,71.04
2018-03-22T04:27:57.232Z,70.67
2018-03-22T04:28:57.221Z,70.67
2018-03-22T04:29:57.211Z,70.57
2018-03-22T04:30:57.201Z,70.57
2018-03-22T04:31:57.191Z,70.39
2018-03-22T04:32:57.181Z,70.01
2018-03-22T04:33:57.171Z,70.20
2018-03-22T04:34:57.161Z,70.20
2018-03-22T04:35:57.155Z,70.01
2018-03-22T04:36:57.142Z,70.48
2018-03-22T04:37:57.133Z,69.53
2018-03-22T04:38:57.133Z,69.72
2018-03-22T04:39:57.112Z,69.82
2018-03-22T04:40:57.104Z,69.63
2018-03-22T04:41:57.091Z,69.63
2018-03-22T04:42:57.082Z,69.34
2018-03-22T04:43:57.074Z,69.82
2018-03-22T04:44:57.068Z,69.72
2018-03-22T04:45:57.054Z,69.63
2018-03-22T04:46:57.043Z,69.15
2018-03-22T04:47:57.036Z,69.53
2018-03-22T04:48:57.023Z,69.66
2018-03-22T04:49:57.017Z,69.76
2018-03-22T04:50:57.004Z,68.62
2018-03-22T04:51:56.998Z,68.71
2018-03-22T04:52:56.986Z,68.87
2018-03-22T04:53:56.973Z,68.52
2018-03-22T04:54:56.963Z,68.43
2018-03-22T04:55:56.954Z,68.05
2018-03-22T04:56:56.943Z,68.15
2018-03-22T04:57:56.939Z,68.05
2018-03-22T04:58:56.924Z,68.05
2018-03-22T04:59:56.916Z,67.77
2018-03-22T05:00:56.926Z,68.24
2018-03-22T05:01:56.895Z,68.05
2018-03-22T05:02:56.888Z,68.05
2018-03-22T05:03:56.895Z,67.96
2018-03-22T05:04:56.865Z,67.86
2018-03-22T05:05:56.857Z,67.86
2018-03-22T05:06:56.859Z,68.05
2018-03-22T05:07:56.839Z,67.39
2018-03-22T05:08:56.828Z,67.49
2018-03-22T05:09:56.818Z,67.58
2018-03-22T05:10:56.806Z,67.58
2018-03-22T05:11:56.799Z,67.01
2018-03-22T05:12:56.787Z,67.20
2018-03-22T05:13:56.781Z,66.92
2018-03-22T05:14:56.769Z,67.30
2018-03-22T05:15:56.761Z,67.01
2018-03-22T05:16:56.748Z,66.92
2018-03-22T05:17:56.741Z,66.44
2018-03-22T05:18:56.734Z,66.63
2018-03-22T05:19:56.723Z,66.63
2018-03-22T05:20:56.713Z,66.53
2018-03-22T05:21:56.703Z,66.06
2018-03-22T05:22:56.694Z,66.25
2018-03-22T05:23:56.686Z,66.53
2018-03-22T05:24:56.672Z,66.44
2018-03-22T05:25:56.663Z,66.25
2018-03-22T05:26:56.655Z,65.78
2018-03-22T05:27:56.645Z,66.25
2018-03-22T05:28:56.634Z,66.16
2018-03-22T05:29:56.625Z,66.16
2018-03-22T05:30:56.620Z,65.78
2018-03-22T05:31:56.612Z,65.50
2018-03-22T05:32:56.597Z,65.59
2018-03-22T05:33:56.587Z,65.31
2018-03-22T05:34:56.578Z,65.50
2018-03-22T05:35:56.571Z,65.12
2018-03-22T05:36:56.559Z,65.40
2018-03-22T05:37:56.551Z,65.21
2018-03-22T05:38:56.542Z,65.12
2018-03-22T05:39:56.588Z,65.40
2018-03-22T05:40:56.521Z,65.69
2018-03-22T05:41:56.518Z,65.21
2018-03-22T05:42:56.505Z,65.59
2018-03-22T05:43:56.495Z,65.69
2018-03-22T05:44:56.484Z,65.34
2018-03-22T05:45:56.478Z,65.12
2018-03-22T05:46:56.468Z,64.64
2018-03-22T05:47:56.463Z,64.93
2018-03-22T05:48:56.447Z,64.87
2018-03-22T05:49:56.440Z,64.39
2018-03-22T05:50:56.434Z,64.77
2018-03-22T05:51:56.422Z,64.30
2018-03-22T05:52:56.413Z,64.11
2018-03-22T05:53:56.403Z,64.11
2018-03-22T05:54:56.395Z,64.11
2018-03-22T05:55:56.383Z,64.68
2018-03-22T05:56:56.380Z,64.87
2018-03-22T05:57:56.381Z,64.68
2018-03-22T05:58:56.359Z,64.11
2018-03-22T05:59:56.349Z,64.68
2018-03-22T06:00:56.338Z,64.49
2018-03-22T06:01:56.332Z,64.39
2018-03-22T06:02:56.327Z,64.30
2018-03-22T06:03:56.312Z,64.49
2018-03-22T06:04:56.302Z,64.58
2018-03-22T06:05:56.293Z,64.39
2018-03-22T06:06:56.286Z,64.68
2018-03-22T06:07:56.274Z,64.58
2018-03-22T06:08:56.271Z,64.68
2018-03-22T06:09:56.438Z,64.49
2018-03-22T06:10:56.248Z,64.58
2018-03-22T06:11:56.242Z,64.49
2018-03-22T06:12:56.231Z,64.49
2018-03-22T06:13:56.221Z,64.39
2018-03-22T06:14:56.219Z,64.49
2018-03-22T06:15:56.204Z,64.30
2018-03-22T06:16:56.192Z,64.49
2018-03-22T06:17:56.188Z,64.30
2018-03-22T06:18:56.186Z,64.49
2018-03-22T06:19:56.213Z,64.68
2018-03-22T06:20:56.156Z,64.39
2018-03-22T06:21:56.168Z,64.30
2018-03-22T06:22:56.139Z,64.49
2018-03-22T06:23:56.135Z,64.77
2018-03-22T06:24:56.124Z,64.30
2018-03-22T06:25:56.125Z,64.30
2018-03-22T06:26:56.106Z,64.39
2018-03-22T06:27:56.100Z,64.49
2018-03-22T06:28:56.088Z,64.20
2018-03-22T06:29:56.075Z,63.82
2018-03-22T06:30:56.070Z,64.58
2018-03-22T06:31:56.060Z,64.11
2018-03-22T06:32:56.052Z,63.92
2018-03-22T06:33:56.044Z,63.82
2018-03-22T06:34:56.034Z,63.64
2018-03-22T06:35:56.024Z,63.82
2018-03-22T06:36:56.019Z,63.76
2018-03-22T06:37:56.011Z,63.57
2018-03-22T06:38:56.010Z,63.76
2018-03-22T06:39:55.993Z,63.67
2018-03-22T06:40:55.982Z,63.76
2018-03-22T06:41:55.984Z,63.67
2018-03-22T06:42:55.979Z,63.29
2018-03-22T06:43:55.959Z,63.10
2018-03-22T06:44:55.946Z,63.39
2018-03-22T06:45:55.941Z,63.39
2018-03-22T06:46:55.934Z,63.29
2018-03-22T06:47:55.922Z,63.20
2018-03-22T06:48:55.912Z,63.76
2018-03-22T06:49:55.904Z,64.14
2018-03-22T06:50:56.143Z,63.85
2018-03-22T06:51:56.014Z,64.04
2018-03-22T06:52:55.977Z,64.14
2018-03-22T06:53:55.910Z,64.42
2018-03-22T06:54:56.038Z,64.61
2018-03-22T06:55:55.988Z,64.71
2018-03-22T06:56:55.973Z,64.90
2018-03-22T06:57:55.836Z,64.81
2018-03-22T06:58:55.831Z,65.00
2018-03-22T06:59:55.822Z,65.09
2018-03-22T07:00:55.813Z,65.37
2018-03-22T07:01:55.804Z,65.56
2018-03-22T07:02:55.794Z,65.75
2018-03-22T07:03:55.788Z,65.56
2018-03-22T07:04:55.782Z,66.03
2018-03-22T07:05:55.774Z,66.22
2018-03-22T07:06:55.789Z,66.22
2018-03-22T07:07:55.753Z,66.13
2018-03-22T07:08:55.745Z,66.41
2018-03-22T07:09:55.741Z,66.22
2018-03-22T07:10:55.730Z,66.22
2018-03-22T07:11:55.720Z,66.60
2018-03-22T07:12:55.715Z,66.74
2018-03-22T07:13:55.704Z,66.22
2018-03-22T07:14:55.698Z,66.64
2018-03-22T07:15:55.695Z,67.30
2018-03-22T07:16:55.681Z,67.02
2018-03-22T07:17:55.671Z,67.11
2018-03-22T07:18:55.674Z,67.11
2018-03-22T07:19:55.658Z,66.74
2018-03-22T07:20:55.653Z,66.93
2018-03-22T07:21:55.643Z,66.64
2018-03-22T07:22:55.637Z,66.45
2018-03-22T07:23:55.626Z,66.74
2018-03-22T07:24:55.614Z,66.16
2018-03-22T07:25:55.657Z,66.26
2018-03-22T07:26:55.612Z,66.26
2018-03-22T07:27:55.592Z,66.16
2018-03-22T07:28:55.586Z,66.16
2018-03-22T07:29:55.578Z,66.74
2018-03-22T07:30:55.571Z,66.74
2018-03-22T07:31:55.565Z,66.35
2018-03-22T07:32:55.572Z,66.54
2018-03-22T07:33:55.547Z,66.64
2018-03-22T07:34:55.537Z,66.26
2018-03-22T07:35:55.531Z,66.54
2018-03-22T07:36:55.523Z,66.54
2018-03-22T07:37:55.515Z,66.74
2018-03-22T07:38:55.507Z,66.35
2018-03-22T07:39:55.501Z,66.45
2018-03-22T07:40:55.496Z,66.83
2018-03-22T07:41:55.484Z,66.45
2018-03-22T07:42:55.560Z,66.45
2018-03-22T07:43:55.472Z,66.45
2018-03-22T07:44:55.461Z,66.93
2018-03-22T07:45:55.456Z,66.93
2018-03-22T07:46:55.446Z,66.45
2018-03-22T07:47:55.449Z,66.16
2018-03-22T07:48:55.436Z,66.16
2018-03-22T07:49:55.424Z,65.59
2018-03-22T07:50:55.419Z,65.78
2018-03-22T07:51:55.409Z,65.41
2018-03-22T07:52:55.403Z,65.97
2018-03-22T07:53:55.402Z,65.97
2018-03-22T07:54:55.387Z,66.54
2018-03-22T07:55:55.379Z,66.45
2018-03-22T07:56:55.375Z,66.16
2018-03-22T07:57:55.364Z,65.59
2018-03-22T07:58:55.385Z,65.22
2018-03-22T07:59:55.356Z,65.88
2018-03-22T08:00:55.346Z,66.26
2018-03-22T08:01:55.336Z,65.97
2018-03-22T08:02:55.327Z,66.26
2018-03-22T08:03:55.440Z,66.26
2018-03-22T08:04:55.312Z,66.83
2018-03-22T08:05:55.451Z,66.26
2018-03-22T08:06:55.306Z,66.83
2018-03-22T08:07:55.290Z,67.30
2018-03-22T08:08:55.296Z,68.06
2018-03-22T08:09:55.288Z,68.35
2018-03-22T08:10:55.281Z,67.96
2018-03-22T08:11:55.261Z,68.06
2018-03-22T08:12:55.281Z,68.44
2018-03-22T08:13:55.254Z,68.63
2018-03-22T08:14:55.331Z,68.82
2018-03-22T08:15:55.234Z,69.20
2018-03-22T08:16:55.226Z,69.29
2018-03-22T08:17:55.217Z,69.77
2018-03-22T08:18:55.224Z,69.77
2018-03-22T08:19:55.201Z,70.34
2018-03-22T08:20:55.196Z,70.43
2018-03-22T08:21:55.188Z,70.81
2018-03-22T08:22:55.192Z,71.00
2018-03-22T08:23:55.186Z,70.15
2018-03-22T08:24:55.179Z,70.24
2018-03-22T08:25:55.160Z,70.53
2018-03-22T08:26:55.337Z,70.53
2018-03-22T08:27:55.142Z,70.53
2018-03-22T08:28:55.144Z,70.24
2018-03-22T08:29:55.125Z,70.34
2018-03-22T08:30:55.119Z,69.86
2018-03-22T08:31:55.150Z,70.43
2018-03-22T08:32:55.109Z,70.05
2018-03-22T08:33:55.130Z,70.72
2018-03-22T08:34:55.242Z,69.67
2018-03-22T08:35:55.082Z,70.15
2018-03-22T08:36:55.101Z,69.77
2018-03-22T08:37:55.127Z,69.77
2018-03-22T08:38:55.074Z,69.86
2018-03-22T08:39:55.051Z,69.77
2018-03-22T08:40:55.043Z,69.86
2018-03-22T08:41:55.034Z,69.77
2018-03-22T08:42:55.031Z,69.96
2018-03-22T08:43:55.021Z,69.48
2018-03-22T08:44:55.013Z,69.57
2018-03-22T08:45:55.005Z,68.82
2018-03-22T08:46:54.998Z,68.73
2018-03-22T08:47:54.994Z,68.91
2018-03-22T08:48:54.982Z,68.91
2018-03-22T08:49:54.996Z,68.63
2018-03-22T08:50:54.969Z,69.20
2018-03-22T08:51:55.010Z,68.73
2018-03-22T08:52:54.953Z,68.63
2018-03-22T08:53:54.945Z,68.73
2018-03-22T08:54:54.977Z,68.91
2018-03-22T08:55:54.931Z,69.01
2018-03-22T08:56:54.923Z,68.82
2018-03-22T08:57:54.916Z,69.13
2018-03-22T08:58:54.909Z,69.71
2018-03-22T08:59:54.902Z,69.77
2018-03-22T09:00:54.895Z,69.29
2018-03-22T09:01:54.886Z,68.76
2018-03-22T09:02:54.883Z,69.23
2018-03-22T09:03:54.871Z,68.66
2018-03-22T09:04:54.979Z,68.57
2018-03-22T09:05:54.857Z,68.66
2018-03-22T09:06:54.851Z,68.76
2018-03-22T09:07:54.843Z,68.06
2018-03-22T09:08:54.838Z,68.10
2018-03-22T09:09:54.829Z,68.06
2018-03-22T09:10:54.838Z,67.90
2018-03-22T09:11:54.814Z,67.52
2018-03-22T09:12:54.805Z,68.19
2018-03-22T09:13:54.805Z,67.62
2018-03-22T09:14:54.796Z,67.24
2018-03-22T09:15:54.784Z,67.24
2018-03-22T09:16:54.782Z,67.62
2018-03-22T09:17:54.809Z,68.00
2018-03-22T09:18:54.770Z,68.00
2018-03-22T09:19:54.757Z,68.00
2018-03-22T09:20:54.750Z,68.29
2018-03-22T09:21:54.739Z,68.19
2018-03-22T09:22:54.740Z,67.62
2018-03-22T09:23:54.726Z,67.81
2018-03-22T09:24:54.769Z,67.43
2018-03-22T09:25:54.715Z,67.05
2018-03-22T09:26:54.704Z,66.58
2018-03-22T09:27:54.701Z,67.05
2018-03-22T09:28:54.691Z,66.77
2018-03-22T09:29:54.688Z,66.48
2018-03-22T09:30:54.716Z,66.48
2018-03-22T09:31:54.905Z,66.77
2018-03-22T09:32:54.680Z,66.58
2018-03-22T09:33:54.655Z,66.48
2018-03-22T09:34:54.731Z,66.29
2018-03-22T09:35:54.643Z,66.86
2018-03-22T09:36:54.634Z,66.86
2018-03-22T09:37:54.634Z,66.67
2018-03-22T09:38:54.621Z,66.86
2018-03-22T09:39:54.613Z,67.33
2018-03-22T09:40:54.606Z,67.05
2018-03-22T09:41:54.678Z,66.96
2018-03-22T09:42:54.592Z,66.96
2018-03-22T09:43:54.584Z,67.62
2018-03-22T09:44:54.581Z,67.27
2018-03-22T09:45:54.572Z,67.75
2018-03-22T09:46:54.565Z,68.23
2018-03-22T09:47:54.557Z,68.29
2018-03-22T09:48:54.551Z,67.94
2018-03-22T09:49:54.544Z,68.04
2018-03-22T09:50:54.543Z,68.04
2018-03-22T09:51:54.534Z,68.13
2018-03-22T09:52:54.523Z,68.32
2018-03-22T09:53:54.522Z,68.76
2018-03-22T09:54:54.519Z,68.60
2018-03-22T09:55:54.504Z,68.60
2018-03-22T09:56:54.555Z,68.89
2018-03-22T09:57:54.497Z,68.89
2018-03-22T09:58:54.490Z,68.98
2018-03-22T09:59:54.495Z,69.27
2018-03-22T10:00:54.469Z,68.79
2018-03-22T10:01:54.462Z,68.70
2018-03-22T10:02:54.486Z,69.27
2018-03-22T10:03:54.450Z,69.55
2018-03-22T10:04:54.444Z,69.36
2018-03-22T10:05:54.436Z,69.46
2018-03-22T10:06:54.429Z,70.03
2018-03-22T10:07:54.422Z,69.84
2018-03-22T10:08:54.415Z,69.93
2018-03-22T10:09:54.410Z,69.93
2018-03-22T10:10:54.403Z,70.88
2018-03-22T10:11:54.398Z,70.31
2018-03-22T10:12:54.391Z,70.78
2018-03-22T10:13:54.391Z,71.07
2018-03-22T10:14:54.389Z,70.88
2018-03-22T10:15:54.369Z,70.88
2018-03-22T10:16:54.367Z,71.07
2018-03-22T10:17:54.357Z,71.55
2018-03-22T10:18:54.352Z,71.64
2018-03-22T10:19:54.345Z,71.55
2018-03-22T10:20:54.336Z,72.02
2018-03-22T10:21:54.331Z,72.11
2018-03-22T10:22:54.339Z,72.49
2018-03-22T10:23:54.320Z,73.16
2018-03-22T10:24:54.312Z,72.78
2018-03-22T10:25:54.310Z,72.97
2018-03-22T10:26:54.309Z,73.25
2018-03-22T10:27:54.302Z,73.72
2018-03-22T10:28:54.289Z,74.20
2018-03-22T10:29:54.281Z,73.54
2018-03-22T10:30:54.274Z,74.39
2018-03-22T10:31:54.272Z,74.20
2018-03-22T10:32:54.261Z,74.11
2018-03-22T10:33:54.254Z,74.39
2018-03-22T10:34:54.256Z,74.96
2018-03-22T10:35:54.297Z,75.34
2018-03-22T10:36:54.236Z,74.68
2018-03-22T10:37:54.230Z,74.77
2018-03-22T10:38:54.226Z,74.20
2018-03-22T10:39:54.221Z,74.68
2018-03-22T10:40:54.215Z,74.77
2018-03-22T10:41:54.232Z,74.58
2018-03-22T10:42:54.198Z,74.68
2018-03-22T10:43:54.197Z,74.77
2018-03-22T10:44:54.189Z,74.77
2018-03-22T10:45:54.185Z,74.96
2018-03-22T10:46:54.170Z,75.62
2018-03-22T10:47:54.167Z,75.43
2018-03-22T10:48:54.156Z,75.43
2018-03-22T10:49:54.153Z,75.53
2018-03-22T10:50:54.147Z,75.81
2018-03-22T10:51:55.065Z,76.39
2018-03-22T10:52:55.352Z,75.91
2018-03-22T10:53:54.129Z,76.39
2018-03-22T10:54:54.118Z,77.05
2018-03-22T10:55:54.125Z,76.67
2018-03-22T10:56:54.105Z,76.48
2018-03-22T10:57:54.102Z,77.24
2018-03-22T10:58:54.093Z,77.71
2018-03-22T10:59:54.171Z,77.71
2018-03-22T11:00:54.172Z,78.38
2018-03-22T11:01:54.079Z,78.09
2018-03-22T11:02:54.073Z,77.62
2018-03-22T11:03:54.130Z,77.62
2018-03-22T11:04:54.063Z,78.19
2018-03-22T11:05:54.049Z,78.28
2018-03-22T11:06:54.047Z,78.75
2018-03-22T11:07:54.038Z,78.95
2018-03-22T11:08:54.032Z,78.47
2018-03-22T11:09:54.032Z,78.47
2018-03-22T11:10:54.019Z,79.23
2018-03-22T11:11:54.064Z,78.95
2018-03-22T11:12:54.034Z,79.17
2018-03-22T11:13:54.016Z,78.85
2018-03-22T11:14:53.992Z,79.14
2018-03-22T11:15:53.996Z,79.71
2018-03-22T11:16:53.978Z,79.80
2018-03-22T11:17:53.971Z,79.71
2018-03-22T11:18:53.984Z,79.99
2018-03-22T11:19:53.965Z,80.27
2018-03-22T11:20:53.960Z,79.80
2018-03-22T11:21:53.983Z,80.18
2018-03-22T11:22:53.944Z,80.08
2018-03-22T11:23:53.935Z,80.65
2018-03-22T11:24:53.929Z,80.94
2018-03-22T11:25:53.924Z,81.04
2018-03-22T11:26:53.932Z,81.04
2018-03-22T11:27:53.912Z,81.13
2018-03-22T11:28:53.903Z,81.41
2018-03-22T11:29:53.898Z,82.17
2018-03-22T11:30:53.891Z,82.27
2018-03-22T11:31:53.884Z,83.03
2018-03-22T11:32:53.879Z,83.22
2018-03-22T11:33:53.872Z,83.22
2018-03-22T11:34:53.868Z,83.12
2018-03-22T11:35:53.862Z,83.03
2018-03-22T11:36:53.860Z,83.50
2018-03-22T11:37:53.852Z,83.12
2018-03-22T11:38:53.846Z,83.50
2018-03-22T11:39:53.833Z,83.59
2018-03-22T11:40:53.831Z,83.94
2018-03-22T11:41:53.819Z,83.78
2018-03-22T11:42:53.815Z,83.88
2018-03-22T11:43:53.811Z,83.97
2018-03-22T11:44:53.800Z,83.59
2018-03-22T11:45:53.794Z,84.36
2018-03-22T11:46:53.792Z,84.17
2018-03-22T11:47:53.791Z,84.07
2018-03-22T11:48:53.772Z,84.55
2018-03-22T11:49:53.776Z,84.59
2018-03-22T11:50:53.782Z,84.83
2018-03-22T11:51:53.754Z,84.92
2018-03-22T11:52:53.753Z,84.59
2018-03-22T11:53:53.775Z,84.69
2018-03-22T11:54:53.784Z,84.41
2018-03-22T11:55:53.726Z,84.88
2018-03-22T11:56:53.722Z,84.03
2018-03-22T11:57:53.732Z,84.69
2018-03-22T11:58:53.713Z,85.07
2018-03-22T11:59:53.708Z,85.07
2018-03-22T12:00:53.695Z,85.64
2018-03-22T12:01:53.717Z,85.07
2018-03-22T12:02:53.679Z,85.07
2018-03-22T12:03:53.684Z,85.55
2018-03-22T12:04:53.665Z,85.55
2018-03-22T12:05:53.659Z,85.55
2018-03-22T12:06:53.657Z,85.55
2018-03-22T12:07:53.647Z,85.26
2018-03-22T12:08:53.639Z,85.26
2018-03-22T12:09:53.631Z,85.55
2018-03-22T12:10:53.624Z,85.45
2018-03-22T12:11:53.618Z,85.74
2018-03-22T12:12:53.613Z,84.69
2018-03-22T12:13:53.606Z,84.88
2018-03-22T12:14:53.598Z,84.78
2018-03-22T12:15:53.592Z,84.69
2018-03-22T12:16:53.589Z,84.78
2018-03-22T12:17:53.576Z,84.92
2018-03-22T12:18:53.569Z,84.31
2018-03-22T12:19:53.564Z,85.17
2018-03-22T12:20:53.567Z,85.97
2018-03-22T12:21:53.559Z,85.68
2018-03-22T12:22:53.553Z,85.59
2018-03-22T12:23:53.539Z,85.64
2018-03-22T12:24:53.565Z,85.93
2018-03-22T12:25:53.525Z,85.64
2018-03-22T12:26:53.516Z,85.55
2018-03-22T12:27:53.510Z,85.55
2018-03-22T12:28:53.506Z,85.55
2018-03-22T12:29:53.496Z,86.21
2018-03-22T12:30:53.488Z,86.40
2018-03-22T12:31:53.481Z,86.59
2018-03-22T12:32:53.493Z,86.40
2018-03-22T12:33:53.469Z,86.11
2018-03-22T12:34:53.468Z,86.30
2018-03-22T12:35:53.455Z,85.55
2018-03-22T12:36:53.447Z,85.64
2018-03-22T12:37:53.441Z,85.26
2018-03-22T12:38:53.439Z,84.69
2018-03-22T12:39:53.438Z,84.74
2018-03-22T12:40:53.421Z,84.50
2018-03-22T12:41:53.413Z,84.22
2018-03-22T12:42:53.408Z,84.50
2018-03-22T12:43:53.402Z,84.31
2018-03-22T12:44:53.403Z,83.94
2018-03-22T12:45:53.394Z,83.74
2018-03-22T12:46:53.387Z,83.74
2018-03-22T12:47:53.373Z,83.36
2018-03-22T12:48:53.367Z,83.65
2018-03-22T12:49:53.406Z,83.27
2018-03-22T12:50:53.354Z,83.17
2018-03-22T12:51:53.348Z,82.98
2018-03-22T12:52:53.344Z,82.32